Observations at @or for Latest


KAST 081355Z AUTO 33004KT 10SM FEW011 BKN021 OVC050 16/14 A3018 RMK AO2 SLP218
 T01610144=
KAST 081403Z AUTO 35004KT 10SM SCT021 OVC050 16/14 A3018 RMK AO2 T01610144=
KBKE 081353Z AUTO 00000KT 10SM CLR 09/06 A3015 RMK AO2 SLP196 T00890056=
KBNO 081353Z AUTO 00000KT 10SM CLR 09/M03 A3018 RMK AO2 SLP191 T00891028=
KCVO 081356Z AUTO 00000KT 10SM BKN055 12/10 A3017 RMK AO2 SLP217 T01220100=
KDLS 081353Z AUTO 30010KT 10SM CLR 19/11 A3008 RMK AO2 SLP183 T01940106=
KEUG 081354Z 00000KT 10SM FEW080 SCT260 13/09 A3017 RMK AO2 SLP215 T01280094=
KHIO 081353Z 00000KT 10SM OVC030 17/11 A3017 RMK AO2 SLP213 T01670111=
KLGD 081356Z AUTO 00000KT 10SM CLR 09/04 A3015 RMK AO2 SLP199 T00890039=
KLKV 081353Z AUTO 34006KT 10SM CLR 08/M01 A3019 RMK AO2 SLP193 T00831011=
KLMT 081353Z 00000KT 10SM CLR 08/06 A3017 RMK AO2 SLP184 T00830061=
KMEH 081356Z AUTO 00000KT 10SM CLR 05/01 A3016 RMK AO2 SLP206 T00500006=
KMFR 081353Z 00000KT 10SM CLR 14/07 A3013 RMK AO2 SLP196 T01390072=
KMMV 081353Z AUTO 00000KT 10SM BKN043 OVC060 15/11 A3016 RMK AO2 SLP213
 T01500111=
KONO 081353Z AUTO 26007KT 10SM CLR 15/04 A3009 RMK AO2 SLP179 T01500044=
KONP 081355Z AUTO 00000KT 1 3/4SM BR OVC019 12/12 A3020 RMK AO2=
KONP 081415Z AUTO 00000KT 2 1/2SM BR OVC015 13/12 A3021 RMK AO2=
KONP 081435Z AUTO 00000KT 1 1/2SM -RA BKN010 OVC015 13/12 A3021 RMK AO2=
KOTH 081356Z 00000KT 10SM CLR 12/12 A3017 RMK AO2 SLP217 T01170117=
KPDT 081353Z 16005KT 10SM CLR 14/04 A3009 RMK AO2 SLP176 T01390044=
KPDX 081353Z 32005KT 10SM SCT033 OVC042 18/11 A3017 RMK AO2 SLP213 T01780111=
KRBG 081353Z AUTO 00000KT 10SM CLR 13/08 A3015 RMK AO2 SLP207 T01330083=
KRDM 081356Z 12003KT 10SM CLR 11/04 A3016 RMK AO2 SLP193 T01110039=
KREO 081352Z AUTO 17004KT 12/M06 A3015 RMK AO1 SLP178 T01171061=
KSLE 081356Z 35003KT 10SM BKN049 OVC065 15/09 A3016 RMK AO2 SLP210 T01500094=
KSXT 081356Z AUTO 01008G16KT 10SM CLR 11/05 A3018 RMK AO2 SLP188 T01110050 $=
KTTD 081353Z 13003KT 10SM BKN045 OVC070 16/11 A3016 RMK AO2 SLP213 T01610111=
KUAO 081353Z AUTO 00000KT 10SM BKN048 BKN060 OVC070 16/12 A3017 RMK AO2 SLP215
 T01560117=